Time;durP1;ratioP1;P1;durP2;ratioP2;P2;SDS_P1;SDS_P2;PMS_P1;PMS_P2;Temp;Humidity;BMP_temperature;BMP_pressure;BME280_temperature;BME280_humidity;BME280_pressure;Samples;Min_cycle;Max_cycle;Signal;HPM_P1;HPM_P2
2021/05/31 00:00:57;;;;;;;6.43;4.03;;;16.40;81.60;;;;;;5114373;28;20031;-84
2021/05/31 00:03:23;;;;;;;7.68;3.50;;;16.40;82.40;;;;;;5096530;28;20085;-86
2021/05/31 00:05:48;;;;;;;6.03;3.65;;;16.30;81.70;;;;;;5114997;28;20043;-81
2021/05/31 00:08:14;;;;;;;6.13;3.60;;;16.30;82.10;;;;;;5114956;28;20039;-81
2021/05/31 00:10:40;;;;;;;6.80;3.40;;;16.20;82.40;;;;;;5114559;28;20047;-81
2021/05/31 00:13:06;;;;;;;5.70;3.63;;;16.20;82.70;;;;;;5096505;28;20028;-81
2021/05/31 00:15:32;;;;;;;7.78;3.33;;;16.10;83.10;;;;;;5095837;28;20023;-83
2021/05/31 00:17:58;;;;;;;5.78;3.65;;;16.00;83.60;;;;;;5096267;28;20073;-83
2021/05/31 00:20:24;;;;;;;7.40;3.45;;;16.10;83.80;;;;;;5095576;28;20024;-83
2021/05/31 00:22:50;;;;;;;5.85;3.80;;;16.10;83.80;;;;;;5096526;28;20102;-84
2021/05/31 00:25:16;;;;;;;5.70;3.72;;;16.10;83.70;;;;;;5114371;28;20562;-83
2021/05/31 00:27:42;;;;;;;7.40;4.07;;;16.20;83.70;;;;;;5096245;28;20026;-84
2021/05/31 00:30:09;;;;;;;7.05;4.07;;;16.20;83.40;;;;;;5113663;28;20098;-84
2021/05/31 00:32:35;;;;;;;5.38;3.60;;;16.10;83.50;;;;;;5096278;28;20020;-83
2021/05/31 00:35:01;;;;;;;8.45;3.97;;;16.00;84.10;;;;;;5095811;28;20026;-83
2021/05/31 00:37:27;;;;;;;6.72;4.05;;;16.00;84.20;;;;;;5096122;28;20551;-81
2021/05/31 00:39:53;;;;;;;6.90;4.07;;;16.10;84.30;;;;;;5095409;28;20111;-83
2021/05/31 00:42:18;;;;;;;8.02;3.72;;;16.10;84.20;;;;;;5096213;28;20062;-83
2021/05/31 00:44:44;;;;;;;7.65;3.70;;;16.00;84.80;;;;;;5095959;28;20024;-84
2021/05/31 00:47:10;;;;;;;6.93;3.70;;;16.00;84.30;;;;;;5114256;28;20024;-83
2021/05/31 00:49:38;;;;;;;7.60;3.78;;;16.00;84.40;;;;;;5094763;28;20428;-83
2021/05/31 00:52:05;;;;;;;6.32;3.85;;;15.90;84.70;;;;;;5095332;28;20020;-84
2021/05/31 00:54:31;;;;;;;7.03;3.88;;;15.80;85.20;;;;;;5114071;28;20031;-84
2021/05/31 00:56:58;;;;;;;6.03;3.75;;;15.80;85.50;;;;;;5096751;28;20023;-84
2021/05/31 00:59:23;;;;;;;6.88;4.05;;;15.80;85.60;;;;;;5099101;28;20032;-83
2021/05/31 01:01:49;;;;;;;6.15;3.65;;;15.70;85.80;;;;;;5099399;28;20027;-83
2021/05/31 01:04:16;;;;;;;9.70;4.20;;;15.60;86.00;;;;;;5099743;28;20016;-84
2021/05/31 01:06:50;;;;;;;9.32;4.50;;;15.60;86.20;;;;;;5099668;28;20023;-84
2021/05/31 01:09:29;;;;;;;11.63;4.57;;;15.60;86.20;;;;;;5099046;28;20119;-84
2021/05/31 01:12:11;;;;;;;7.10;4.20;;;15.60;86.60;;;;;;5117890;28;20028;-86
2021/05/31 01:14:44;;;;;;;9.40;4.85;;;15.50;87.00;;;;;;5118634;28;20058;-85
2021/05/31 01:17:18;;;;;;;7.78;4.55;;;15.50;87.20;;;;;;5099489;28;20033;-83
2021/05/31 01:20:02;;;;;;;10.57;4.93;;;15.50;87.40;;;;;;5098912;28;20031;-84
2021/05/31 01:22:32;;;;;;;9.50;4.90;;;15.40;87.70;;;;;;5117950;28;20020;-83
2021/05/31 01:25:03;;;;;;;8.23;4.60;;;15.40;87.90;;;;;;5117869;28;20020;-84
2021/05/31 01:27:42;;;;;;;7.70;4.70;;;15.30;88.10;;;;;;5099334;28;20019;-84
2021/05/31 01:30:10;;;;;;;12.88;5.07;;;15.30;88.20;;;;;;5116830;28;20391;-84
2021/05/31 01:32:46;;;;;;;7.22;4.75;;;15.30;88.20;;;;;;5098033;28;20054;-84
2021/05/31 01:35:17;;;;;;;10.02;5.10;;;15.30;88.30;;;;;;5117644;28;20116;-83
2021/05/31 01:37:44;;;;;;;9.90;4.97;;;15.30;88.30;;;;;;5117347;28;20047;-84
2021/05/31 01:40:11;;;;;;;8.40;4.47;;;15.30;88.20;;;;;;5116400;28;20046;-83
2021/05/31 01:42:37;;;;;;;8.90;4.90;;;15.40;88.40;;;;;;5116899;28;20031;-83
2021/05/31 01:45:05;;;;;;;9.50;4.90;;;15.30;88.10;;;;;;5117350;28;20046;-84
2021/05/31 01:47:34;;;;;;;8.63;5.28;;;15.40;88.10;;;;;;5117167;28;20148;-85
2021/05/31 01:50:00;;;;;;;9.03;5.27;;;15.40;88.10;;;;;;5098311;28;20111;-85
2021/05/31 01:52:26;;;;;;;9.77;5.20;;;15.40;88.10;;;;;;5098417;28;20261;-84
2021/05/31 01:54:55;;;;;;;8.75;5.00;;;15.30;88.10;;;;;;5099069;28;20015;-81
2021/05/31 01:57:22;;;;;;;7.88;4.68;;;15.40;88.20;;;;;;5117145;28;20361;-84
2021/05/31 01:59:49;;;;;;;11.77;4.88;;;15.40;88.20;;;;;;5098136;28;20039;-84
2021/05/31 02:02:16;;;;;;;8.18;5.10;;;15.40;88.30;;;;;;5098921;28;20020;-83
2021/05/31 02:04:42;;;;;;;10.25;5.53;;;15.30;88.40;;;;;;5099144;28;20027;-85
2021/05/31 02:07:07;;;;;;;9.32;5.50;;;15.30;88.60;;;;;;5098612;28;20016;-85
2021/05/31 02:09:33;;;;;;;7.95;5.25;;;15.30;88.50;;;;;;5098645;28;20024;-84
2021/05/31 02:12:10;;;;;;;8.15;5.05;;;15.30;88.40;;;;;;5117176;28;20062;-84
2021/05/31 02:14:59;;;;;;;11.68;5.53;;;15.30;88.50;;;;;;5098533;28;20392;-84
2021/05/31 02:17:42;;;;;;;10.52;5.43;;;15.30;88.50;;;;;;5099184;28;20035;-83
2021/05/31 02:20:14;;;;;;;10.52;5.18;;;15.30;88.60;;;;;;5097797;28;20024;-84
2021/05/31 02:22:44;;;;;;;9.23;5.93;;;15.30;88.50;;;;;;5098669;28;20027;-83
2021/05/31 02:25:12;;;;;;;9.18;5.45;;;15.30;88.80;;;;;;5117444;28;20020;-86
2021/05/31 02:27:38;;;;;;;11.77;6.18;;;15.30;88.80;;;;;;5117023;28;20026;-83
2021/05/31 02:30:05;;;;;;;9.68;6.05;;;15.30;88.70;;;;;;5097961;28;20035;-84
2021/05/31 02:32:31;;;;;;;11.27;5.68;;;15.30;88.80;;;;;;5098304;28;20024;-83
2021/05/31 02:34:58;;;;;;;10.05;5.38;;;15.30;88.80;;;;;;5117117;28;20016;-84
2021/05/31 02:37:39;;;;;;;8.57;5.20;;;15.20;88.80;;;;;;5098158;28;20115;-83
2021/05/31 02:40:08;;;;;;;11.38;6.35;;;15.20;89.30;;;;;;5097783;28;20054;-83
2021/05/31 02:43:03;;;;;;;8.90;5.43;;;15.00;89.50;;;;;;5098281;28;20491;-83
2021/05/31 02:45:29;;;;;;;9.02;5.80;;;15.00;90.10;;;;;;5095304;28;20038;-83
2021/05/31 02:47:57;;;;;;;9.05;5.85;;;14.90;90.10;;;;;;5115606;28;20472;-83
2021/05/31 02:50:23;;;;;;;8.48;5.47;;;14.90;90.10;;;;;;5097447;28;20480;-85
2021/05/31 02:52:49;;;;;;;11.18;6.03;;;14.80;90.10;;;;;;5116161;28;20182;-84
2021/05/31 02:55:22;;;;;;;11.70;5.80;;;14.80;90.20;;;;;;5097652;28;20028;-84
2021/05/31 02:57:48;;;;;;;9.23;5.53;;;14.80;90.30;;;;;;5115952;28;20080;-84
2021/05/31 03:00:16;;;;;;;9.05;5.53;;;14.70;90.50;;;;;;5096958;28;20027;-83
2021/05/31 03:02:42;;;;;;;9.63;6.22;;;14.60;90.60;;;;;;5115166;28;20028;-84
2021/05/31 03:05:11;;;;;;;11.40;5.70;;;14.60;90.70;;;;;;5115635;28;20028;-83
2021/05/31 03:07:37;;;;;;;8.45;6.20;;;14.70;90.90;;;;;;5097180;28;20032;-84
2021/05/31 03:10:04;;;;;;;9.93;6.05;;;14.60;90.60;;;;;;5114917;28;20038;-83
2021/05/31 03:12:29;;;;;;;9.40;5.38;;;14.50;90.70;;;;;;5115100;28;20084;-84
2021/05/31 03:14:55;;;;;;;9.60;5.68;;;14.50;90.90;;;;;;5115691;28;20032;-83
2021/05/31 03:17:21;;;;;;;8.98;5.80;;;14.50;91.00;;;;;;5115245;28;20041;-83
2021/05/31 03:19:47;;;;;;;11.77;6.60;;;14.60;90.80;;;;;;5114522;28;20085;-84
2021/05/31 03:22:12;;;;;;;10.35;6.25;;;14.50;90.90;;;;;;5097141;28;20073;-83
2021/05/31 03:24:38;;;;;;;11.63;6.80;;;14.50;91.00;;;;;;5096259;28;20409;-84
2021/05/31 03:27:05;;;;;;;11.35;6.60;;;14.40;91.10;;;;;;5095414;28;20026;-83
2021/05/31 03:29:31;;;;;;;10.05;5.95;;;14.40;91.20;;;;;;5094952;28;20030;-83
2021/05/31 03:31:57;;;;;;;9.82;6.15;;;14.40;91.20;;;;;;5113838;28;20106;-83
2021/05/31 03:34:23;;;;;;;11.43;6.68;;;14.40;91.50;;;;;;5095892;28;20023;-84
2021/05/31 03:36:48;;;;;;;14.43;7.32;;;14.30;91.30;;;;;;5114007;28;20031;-84
2021/05/31 03:39:14;;;;;;;11.35;6.63;;;14.30;91.40;;;;;;5113664;28;20020;-84
2021/05/31 03:41:40;;;;;;;12.38;7.22;;;14.20;91.50;;;;;;5114109;28;20070;-84
2021/05/31 03:44:06;;;;;;;11.32;6.55;;;14.20;91.70;;;;;;5114340;28;20063;-83
2021/05/31 03:46:32;;;;;;;9.85;6.88;;;14.20;91.60;;;;;;5095817;28;20028;-83
2021/05/31 03:48:57;;;;;;;11.57;6.60;;;14.30;91.50;;;;;;5114698;28;20304;-83
2021/05/31 03:51:23;;;;;;;12.07;6.20;;;14.10;91.60;;;;;;5096620;28;20144;-84
2021/05/31 03:53:49;;;;;;;9.60;6.68;;;14.20;91.80;;;;;;5096714;28;20114;-83
2021/05/31 03:56:14;;;;;;;13.68;6.80;;;14.20;91.80;;;;;;5115063;28;20028;-84
2021/05/31 03:58:42;;;;;;;12.02;6.63;;;14.20;91.70;;;;;;5096964;28;20027;-84
2021/05/31 04:01:08;;;;;;;12.02;6.80;;;14.20;92.10;;;;;;5095810;28;20020;-84
2021/05/31 04:03:35;;;;;;;13.02;7.00;;;14.30;91.70;;;;;;5096364;28;20365;-85
2021/05/31 04:06:17;;;;;;;11.80;7.05;;;14.20;91.80;;;;;;5096406;28;20027;-84
2021/05/31 04:14:20;;;;;;;12.20;7.00;;;14.30;91.80;;;;;;5115933;28;20027;-83
2021/05/31 04:16:47;;;;;;;11.85;7.18;;;14.30;91.80;;;;;;5097066;28;20042;-83
2021/05/31 04:19:18;;;;;;;14.40;7.25;;;14.30;91.70;;;;;;5096988;28;20808;-83
2021/05/31 04:21:47;;;;;;;11.43;7.38;;;14.20;92.00;;;;;;5115682;28;20432;-83
2021/05/31 04:24:13;;;;;;;;;;;14.30;92.10;;;;;;5116247;28;20012;-84
2021/05/31 04:26:40;;;;;;;14.32;7.43;;;14.30;91.90;;;;;;5096679;28;19927;-84
2021/05/31 04:29:08;;;;;;;13.80;8.45;;;14.30;91.90;;;;;;5096270;28;20448;-83
2021/05/31 04:31:35;;;;;;;11.13;7.18;;;14.30;91.90;;;;;;5119449;28;20032;-83
2021/05/31 04:34:04;;;;;;;13.75;7.22;;;14.40;91.90;;;;;;5103441;28;20042;-83
2021/05/31 04:36:31;;;;;;;16.45;8.63;;;14.40;91.90;;;;;;5122330;28;20023;-83
2021/05/31 04:38:56;;;;;;;17.00;8.73;;;14.50;91.70;;;;;;5102918;28;20035;-83
2021/05/31 04:41:22;;;;;;;15.20;8.70;;;14.50;91.50;;;;;;5103383;28;20475;-83
2021/05/31 04:43:48;;;;;;;14.07;8.93;;;14.50;91.90;;;;;;5121718;28;20019;-84
2021/05/31 04:46:13;;;;;;;14.73;8.00;;;14.50;91.60;;;;;;5103339;28;20048;-83
2021/05/31 04:48:39;;;;;;;16.00;9.75;;;14.60;91.30;;;;;;5103348;28;20031;-83
2021/05/31 04:51:05;;;;;;;12.38;8.00;;;14.60;91.20;;;;;;5102603;28;20028;-84
2021/05/31 04:53:32;;;;;;;14.13;8.77;;;14.70;91.10;;;;;;5103581;28;20030;-84
2021/05/31 04:56:01;;;;;;;19.42;8.25;;;14.70;91.30;;;;;;5104148;28;20321;-83
2021/05/31 04:58:27;;;;;;;13.30;8.15;;;14.70;91.20;;;;;;5103315;28;20106;-83
2021/05/31 05:00:53;;;;;;;13.98;8.35;;;14.80;91.00;;;;;;5121556;28;20440;-83
2021/05/31 05:03:18;;;;;;;12.18;8.05;;;14.80;91.20;;;;;;5122199;28;20051;-85
2021/05/31 05:05:45;;;;;;;14.73;8.05;;;14.80;91.00;;;;;;5121607;28;20031;-83
2021/05/31 05:08:11;;;;;;;14.68;8.48;;;14.90;91.00;;;;;;5122862;28;20031;-84
2021/05/31 05:10:40;;;;;;;16.45;8.73;;;15.00;90.80;;;;;;5121468;28;20027;-83
2021/05/31 05:13:05;;;;;;;13.98;8.25;;;15.00;90.80;;;;;;5122060;28;20075;-83
2021/05/31 05:15:34;;;;;;;16.63;8.60;;;15.00;90.80;;;;;;5121672;28;20051;-83
2021/05/31 05:18:00;;;;;;;16.75;9.10;;;15.00;90.90;;;;;;5103214;28;20024;-85
2021/05/31 05:20:29;;;;;;;11.50;8.32;;;15.00;90.70;;;;;;5122099;28;20034;-84
2021/05/31 05:22:56;;;;;;;15.80;9.13;;;15.00;90.80;;;;;;5104587;28;20037;-84
2021/05/31 05:25:23;;;;;;;17.20;8.68;;;15.00;90.70;;;;;;5103874;28;20034;-83
2021/05/31 05:27:49;;;;;;;14.00;8.15;;;15.00;90.70;;;;;;5103708;28;20990;-84
2021/05/31 05:30:19;;;;;;;13.73;8.80;;;15.10;90.70;;;;;;5121903;28;20019;-83
2021/05/31 05:32:49;;;;;;;;;;;15.10;90.60;;;;;;5104304;28;20052;-85
2021/05/31 05:35:24;;;;;;;14.48;8.68;;;15.20;90.60;;;;;;5121918;28;19927;-83
2021/05/31 05:38:01;;;;;;;12.63;8.57;;;15.20;90.60;;;;;;5121020;28;20023;-83
2021/05/31 05:43:48;;;;;;;13.07;8.23;;;15.20;90.70;;;;;;5136645;27;20027;-86
2021/05/31 05:46:22;;;;;;;12.48;8.40;;;15.30;90.60;;;;;;5132920;27;20487;-85
2021/05/31 05:48:49;;;;;;;15.70;8.10;;;15.30;90.70;;;;;;5134631;27;20030;-85
2021/05/31 05:51:15;;;;;;;20.15;8.85;;;15.40;90.70;;;;;;5134668;27;20027;-85
2021/05/31 05:53:42;;;;;;;12.95;8.27;;;15.40;90.70;;;;;;5136169;27;20095;-85
2021/05/31 05:56:14;;;;;;;19.00;8.80;;;15.40;90.70;;;;;;5135807;27;20019;-86
2021/05/31 05:58:40;;;;;;;16.45;8.70;;;15.40;90.20;;;;;;5134443;27;20068;-86
2021/05/31 06:01:08;;;;;;;15.82;8.48;;;15.50;90.40;;;;;;5134133;27;20431;-85
2021/05/31 06:03:34;;;;;;;15.07;9.27;;;15.50;90.30;;;;;;5134959;27;20023;-85
2021/05/31 06:06:00;;;;;;;13.10;7.93;;;15.50;90.10;;;;;;5134831;27;20256;-85
2021/05/31 06:08:26;;;;;;;15.43;8.82;;;15.50;90.50;;;;;;5134707;27;20065;-86
2021/05/31 06:10:52;;;;;;;15.23;8.48;;;15.60;90.00;;;;;;5135183;27;20030;-85
2021/05/31 06:13:18;;;;;;;16.15;8.30;;;15.60;90.20;;;;;;5135907;27;20023;-86
2021/05/31 06:15:43;;;;;;;15.60;8.15;;;15.60;90.20;;;;;;5135816;27;20058;-86
2021/05/31 06:18:09;;;;;;;13.95;8.13;;;15.70;90.20;;;;;;5136024;27;20368;-86
2021/05/31 06:20:35;;;;;;;14.30;7.65;;;15.70;90.20;;;;;;5135241;27;20040;-86
2021/05/31 06:23:03;;;;;;;11.68;8.02;;;15.80;90.20;;;;;;5134250;27;20023;-86
2021/05/31 06:25:29;;;;;;;14.05;7.82;;;15.80;89.60;;;;;;5135279;27;20061;-86
2021/05/31 06:27:54;;;;;;;13.43;8.30;;;15.80;89.20;;;;;;5133837;27;20039;-85
2021/05/31 06:30:22;;;;;;;16.13;8.30;;;15.80;89.50;;;;;;5133129;27;20424;-86
2021/05/31 06:32:47;;;;;;;10.80;7.28;;;15.90;89.40;;;;;;5133364;27;20289;-86
2021/05/31 06:35:13;;;;;;;9.88;7.38;;;15.90;89.30;;;;;;5135090;27;20019;-86
2021/05/31 06:37:39;;;;;;;11.02;6.97;;;15.90;89.20;;;;;;5134497;27;20075;-86
2021/05/31 06:40:14;;;;;;;12.10;7.32;;;16.00;89.10;;;;;;5134221;27;20027;-86
2021/05/31 06:42:42;;;;;;;10.05;6.88;;;16.00;88.60;;;;;;5133553;27;20028;-86
2021/05/31 06:45:10;;;;;;;13.93;7.03;;;16.00;88.70;;;;;;5133642;27;20387;-86
2021/05/31 06:47:37;;;;;;;10.45;7.05;;;16.10;88.70;;;;;;5135472;27;20072;-86
2021/05/31 06:50:05;;;;;;;10.77;6.75;;;16.10;88.60;;;;;;5132862;27;20023;-86
2021/05/31 06:52:31;;;;;;;13.37;7.87;;;16.10;88.70;;;;;;5133143;27;20027;-86
2021/05/31 06:54:57;;;;;;;13.80;7.60;;;16.10;88.80;;;;;;5133440;27;20337;-86
2021/05/31 06:57:23;;;;;;;11.65;6.82;;;16.20;89.30;;;;;;5133359;27;20027;-86
2021/05/31 06:59:49;;;;;;;10.65;6.63;;;16.20;88.60;;;;;;5132503;27;20049;-86
2021/05/31 07:02:14;;;;;;;12.45;7.40;;;16.20;88.70;;;;;;5133081;27;20019;-86
2021/05/31 07:04:40;;;;;;;12.48;8.35;;;16.20;88.40;;;;;;5133089;27;20027;-86
2021/05/31 07:07:05;;;;;;;16.27;9.00;;;16.20;88.90;;;;;;5133300;27;20019;-86
2021/05/31 07:09:31;;;;;;;13.25;8.23;;;16.20;88.40;;;;;;5132572;27;20019;-86
2021/05/31 07:11:57;;;;;;;11.45;7.63;;;16.30;88.20;;;;;;5134058;27;20027;-86
2021/05/31 07:14:32;;;;;;;15.32;9.23;;;16.30;88.10;;;;;;5132897;27;20403;-86
2021/05/31 07:16:58;;;;;;;14.85;8.77;;;16.30;88.30;;;;;;5134256;27;20027;-86
2021/05/31 07:19:25;;;;;;;12.88;7.60;;;16.40;88.30;;;;;;5131995;27;20527;-86
2021/05/31 07:21:51;;;;;;;12.23;7.35;;;16.40;88.10;;;;;;5132732;27;20019;-86
2021/05/31 07:24:16;;;;;;;13.98;7.90;;;16.40;88.00;;;;;;5132981;27;20030;-86
2021/05/31 07:26:42;;;;;;;24.40;15.32;;;16.40;88.30;;;;;;5133983;27;20034;-86
2021/05/31 07:29:08;;;;;;;17.98;11.60;;;16.40;87.90;;;;;;5132196;27;20038;-86
2021/05/31 07:31:34;;;;;;;13.43;8.82;;;16.50;87.80;;;;;;5132549;27;20056;-86
2021/05/31 07:34:00;;;;;;;16.83;9.52;;;16.50;88.00;;;;;;5133874;27;20054;-86
2021/05/31 07:36:25;;;;;;;22.52;13.57;;;16.50;88.10;;;;;;5134197;27;20158;-86
2021/05/31 07:38:52;;;;;;;16.20;10.65;;;16.60;88.10;;;;;;5131961;27;20030;-86
2021/05/31 07:41:19;;;;;;;14.23;8.63;;;16.60;88.00;;;;;;5132035;27;20053;-86
2021/05/31 07:43:45;;;;;;;15.07;8.18;;;16.70;87.80;;;;;;5132382;27;20399;-86
2021/05/31 07:46:12;;;;;;;14.20;8.65;;;16.70;87.60;;;;;;5133815;27;20030;-86
2021/05/31 07:48:39;;;;;;;13.85;8.80;;;16.70;87.20;;;;;;5132261;27;20035;-87
2021/05/31 07:51:18;;;;;;;21.10;12.02;;;16.80;86.70;;;;;;5132887;27;20114;-86
2021/05/31 07:53:52;;;;;;;13.77;7.75;;;16.90;86.70;;;;;;5132351;27;20030;-86
2021/05/31 07:56:18;;;;;;;11.73;7.20;;;16.90;86.20;;;;;;5132415;27;20039;-87
2021/05/31 07:58:45;;;;;;;11.00;7.25;;;16.90;86.50;;;;;;5132148;27;20031;-87
2021/05/31 08:01:11;;;;;;;16.65;9.48;;;16.90;86.90;;;;;;5131735;27;20460;-87
2021/05/31 08:03:41;;;;;;;12.50;7.38;;;17.00;86.20;;;;;;5133691;27;20055;-87
2021/05/31 08:06:07;;;;;;;11.85;7.30;;;17.10;86.00;;;;;;5131906;27;20027;-87
2021/05/31 08:08:33;;;;;;;10.63;6.35;;;17.10;86.10;;;;;;5133320;27;20037;-87
2021/05/31 08:11:00;;;;;;;9.98;6.95;;;17.10;86.00;;;;;;5132457;27;20023;-87
2021/05/31 08:13:25;;;;;;;12.52;7.53;;;17.10;85.10;;;;;;5133041;27;20027;-87
2021/05/31 08:15:52;;;;;;;12.82;7.72;;;17.10;85.20;;;;;;5131966;27;20034;-87
2021/05/31 08:18:19;;;;;;;13.20;8.13;;;17.20;85.50;;;;;;5133153;27;20049;-87
2021/05/31 08:20:45;;;;;;;13.38;6.88;;;17.10;86.30;;;;;;5132575;27;20534;-87
2021/05/31 08:23:11;;;;;;;11.85;5.93;;;17.10;86.40;;;;;;5132932;27;20027;-87
2021/05/31 08:25:38;;;;;;;12.32;6.65;;;17.20;86.70;;;;;;5132083;27;20467;-88
2021/05/31 08:28:04;;;;;;;12.93;7.45;;;17.20;86.30;;;;;;5133186;27;20062;-87
2021/05/31 08:30:31;;;;;;;10.68;7.07;;;17.20;85.20;;;;;;5132482;28;20058;-87
2021/05/31 08:32:58;;;;;;;11.93;6.60;;;17.20;85.20;;;;;;5131676;28;20023;-87
2021/05/31 08:35:24;;;;;;;10.30;5.63;;;17.30;84.30;;;;;;5133242;28;20027;-87
2021/05/31 08:37:50;;;;;;;8.45;4.97;;;17.30;84.70;;;;;;5131773;28;20386;-87
2021/05/31 08:40:15;;;;;;;8.93;5.03;;;17.30;84.20;;;;;;5132329;28;20027;-87
2021/05/31 08:42:42;;;;;;;10.88;6.28;;;17.30;85.20;;;;;;5132979;28;20031;-87
2021/05/31 08:45:10;;;;;;;10.55;5.70;;;17.40;83.30;;;;;;5131590;28;20577;-87
2021/05/31 08:47:45;;;;;;;10.63;5.37;;;17.50;82.80;;;;;;5131551;28;20027;-87
2021/05/31 08:50:12;;;;;;;9.10;5.25;;;17.50;82.70;;;;;;5131055;28;20292;-87
2021/05/31 08:52:39;;;;;;;8.05;5.10;;;17.50;83.10;;;;;;5132549;28;20114;-87
2021/05/31 08:55:07;;;;;;;10.10;5.30;;;17.50;82.50;;;;;;5132912;28;20057;-87
2021/05/31 08:57:33;;;;;;;9.32;6.32;;;17.60;82.20;;;;;;5131482;28;20157;-87
2021/05/31 08:59:59;;;;;;;8.88;4.70;;;17.60;82.00;;;;;;5130911;28;20114;-87
2021/05/31 09:02:30;;;;;;;9.15;4.80;;;17.60;81.20;;;;;;5133044;28;20023;-88
2021/05/31 09:04:56;;;;;;;6.47;4.40;;;17.60;79.20;;;;;;5133966;28;20023;-88
2021/05/31 09:07:22;;;;;;;8.65;4.97;;;17.70;78.10;;;;;;5131471;28;20023;-86
2021/05/31 09:09:48;;;;;;;8.02;5.03;;;17.70;79.60;;;;;;5130841;28;20054;-86
2021/05/31 09:12:22;;;;;;;6.88;4.30;;;17.70;81.20;;;;;;5131151;28;20479;-86
2021/05/31 09:15:00;;;;;;;8.73;3.60;;;17.80;80.80;;;;;;5131443;28;20114;-88
2021/05/31 09:17:36;;;;;;;7.63;4.00;;;17.70;79.50;;;;;;5133841;27;20372;-86
2021/05/31 09:20:04;;;;;;;7.82;4.68;;;17.80;79.10;;;;;;5134610;27;20037;-88
2021/05/31 09:22:30;;;;;;;9.20;5.60;;;17.80;77.80;;;;;;5136511;27;20038;-88
2021/05/31 09:25:01;;;;;;;8.93;4.55;;;17.90;78.10;;;;;;5137028;27;20026;-88
2021/05/31 09:27:31;;;;;;;8.45;4.47;;;17.90;77.90;;;;;;5135304;27;20099;-87
2021/05/31 09:30:06;;;;;;;7.60;4.07;;;17.90;77.90;;;;;;5134531;27;20031;-87
2021/05/31 09:32:32;;;;;;;9.45;4.40;;;18.00;75.90;;;;;;5134770;27;20034;-86
2021/05/31 09:35:01;;;;;;;5.70;3.80;;;18.20;74.80;;;;;;5134886;27;20026;-86
2021/05/31 09:37:27;;;;;;;10.63;4.38;;;18.20;74.30;;;;;;5134859;27;20023;-88
2021/05/31 09:40:03;;;;;;;5.63;3.40;;;18.20;73.70;;;;;;5135457;27;20471;-86
2021/05/31 09:42:29;;;;;;;8.05;4.00;;;18.20;74.00;;;;;;5134843;27;20390;-87
2021/05/31 09:45:09;;;;;;;6.35;3.95;;;18.20;74.40;;;;;;5134816;27;20015;-86
2021/05/31 09:47:36;;;;;;;8.13;3.67;;;18.20;74.50;;;;;;5134822;27;20026;-86
2021/05/31 09:50:04;;;;;;;7.10;3.80;;;18.20;74.30;;;;;;5133919;27;20031;-86
2021/05/31 09:52:30;;;;;;;6.45;3.80;;;18.30;72.10;;;;;;5140276;27;20034;-86
2021/05/31 09:54:55;;;;;;;7.53;3.70;;;18.40;71.40;;;;;;5139769;27;20031;-86
2021/05/31 09:57:29;;;;;;;6.30;3.97;;;18.40;72.20;;;;;;5138885;27;20122;-86
2021/05/31 10:00:01;;;;;;;6.75;4.20;;;18.50;71.10;;;;;;5135600;27;20027;-86
2021/05/31 10:03:00;;;;;;;6.35;3.92;;;18.50;71.70;;;;;;5135699;27;20030;-87
2021/05/31 10:10:37;;;;;;;8.48;4.45;;;18.40;72.00;;;;;;5134934;27;20019;-87
2021/05/31 10:13:04;;;;;;;7.15;3.90;;;18.40;72.30;;;;;;5134155;27;20074;-87
2021/05/31 10:15:33;;;;;;;7.45;3.90;;;18.40;72.40;;;;;;5135432;27;20019;-87
2021/05/31 10:18:00;;;;;;;8.35;4.20;;;18.30;70.40;;;;;;5133998;27;20502;-87
2021/05/31 10:20:28;;;;;;;5.30;3.67;;;18.40;70.70;;;;;;5134666;27;20047;-87
2021/05/31 10:22:55;;;;;;;7.30;3.73;;;18.50;70.20;;;;;;5135385;27;20098;-87
2021/05/31 10:25:23;;;;;;;6.45;3.65;;;18.50;71.70;;;;;;5138110;27;20340;-87
2021/05/31 10:27:53;;;;;;;6.00;3.65;;;18.60;71.40;;;;;;5134413;27;20474;-87
2021/05/31 10:30:20;;;;;;;6.20;3.40;;;18.60;71.70;;;;;;5134019;27;20038;-87
2021/05/31 10:32:46;;;;;;;6.93;3.75;;;18.60;71.70;;;;;;5136156;27;20064;-87
2021/05/31 10:35:39;;;;;;;8.10;4.15;;;18.50;71.40;;;;;;5135018;27;20375;-87
2021/05/31 10:38:11;;;;;;;5.63;4.17;;;18.60;72.10;;;;;;5130559;27;20038;-87
2021/05/31 10:40:42;;;;;;;7.57;3.90;;;18.60;70.10;;;;;;5132968;27;20031;-87
2021/05/31 10:43:09;;;;;;;5.85;3.15;;;18.70;67.90;;;;;;5133687;27;20027;-87
2021/05/31 10:45:36;;;;;;;5.72;3.10;;;18.70;68.00;;;;;;5133583;27;20490;-87
2021/05/31 10:48:09;;;;;;;5.68;3.22;;;18.80;69.10;;;;;;5133467;27;20034;-87
2021/05/31 10:50:41;;;;;;;5.53;3.10;;;18.80;68.80;;;;;;5132791;27;20027;-87
2021/05/31 10:53:09;;;;;;;5.90;3.55;;;18.80;68.10;;;;;;5133816;27;20034;-87
2021/05/31 10:55:36;;;;;;;8.10;3.78;;;18.90;68.40;;;;;;5133692;27;20024;-87
2021/05/31 10:58:01;;;;;;;6.85;3.72;;;18.90;69.00;;;;;;5133773;27;20391;-87
2021/05/31 11:00:31;;;;;;;6.38;3.50;;;19.00;67.60;;;;;;5134562;27;20034;-87
2021/05/31 11:03:12;;;;;;;7.18;3.85;;;19.00;68.40;;;;;;5134842;27;20031;-87
2021/05/31 11:05:38;;;;;;;7.25;3.50;;;19.00;68.60;;;;;;5135073;27;20106;-86
2021/05/31 11:08:08;;;;;;;4.78;3.20;;;19.10;67.80;;;;;;5133369;27;20023;-87
2021/05/31 11:10:35;;;;;;;5.45;3.20;;;19.00;66.40;;;;;;5133696;27;20467;-87
2021/05/31 11:13:15;;;;;;;7.53;4.28;;;19.10;66.40;;;;;;5133008;27;20027;-87
2021/05/31 11:15:42;;;;;;;7.20;3.55;;;19.10;66.90;;;;;;5134236;27;20038;-87
2021/05/31 11:18:09;;;;;;;5.78;3.78;;;19.10;66.90;;;;;;5132923;27;20457;-88
2021/05/31 11:20:39;;;;;;;5.65;3.42;;;19.10;65.50;;;;;;5132141;27;20046;-86
2021/05/31 11:23:06;;;;;;;6.55;3.55;;;19.20;65.10;;;;;;5133079;27;20080;-87
2021/05/31 11:25:32;;;;;;;6.47;4.07;;;19.20;65.20;;;;;;5132854;27;20031;-87
2021/05/31 11:28:03;;;;;;;6.38;3.83;;;19.30;66.20;;;;;;5132746;27;20023;-87
2021/05/31 11:30:32;;;;;;;8.15;4.15;;;19.30;67.80;;;;;;5132159;27;20027;-87
2021/05/31 11:33:01;;;;;;;9.48;4.70;;;19.40;67.40;;;;;;5132304;27;20027;-87
2021/05/31 11:35:28;;;;;;;7.88;4.28;;;19.40;66.60;;;;;;5133884;27;20030;-87
2021/05/31 11:37:55;;;;;;;11.40;4.10;;;19.40;66.50;;;;;;5132496;27;20035;-87
2021/05/31 11:40:25;;;;;;;7.05;3.85;;;19.60;65.90;;;;;;5131688;27;20057;-87
2021/05/31 11:42:57;;;;;;;6.20;3.90;;;19.50;66.20;;;;;;5132267;27;20547;-86
2021/05/31 11:45:25;;;;;;;6.18;3.80;;;19.60;66.20;;;;;;5132351;27;20471;-86
2021/05/31 11:48:03;;;;;;;8.13;4.07;;;19.60;67.00;;;;;;5132655;27;20468;-86
2021/05/31 11:50:33;;;;;;;6.88;3.60;;;19.60;66.50;;;;;;5132973;27;20122;-86
2021/05/31 11:52:59;;;;;;;7.60;4.10;;;19.60;66.20;;;;;;5133326;27;20019;-86
2021/05/31 11:55:27;;;;;;;9.95;5.05;;;19.70;67.90;;;;;;5133481;27;20019;-86
2021/05/31 11:57:53;;;;;;;8.40;4.63;;;19.70;68.70;;;;;;5132118;27;20023;-86
2021/05/31 12:00:23;;;;;;;8.82;4.93;;;19.70;68.50;;;;;;5131284;27;20065;-86
2021/05/31 12:02:49;;;;;;;6.90;4.32;;;19.80;67.60;;;;;;5131980;27;20061;-86
2021/05/31 12:05:26;;;;;;;7.13;3.50;;;19.90;68.10;;;;;;5133421;27;20043;-86
2021/05/31 12:07:51;;;;;;;8.45;4.60;;;19.80;67.70;;;;;;5133259;27;20029;-86
2021/05/31 12:10:17;;;;;;;9.40;4.25;;;19.90;68.00;;;;;;5131306;27;20019;-87
2021/05/31 12:12:48;;;;;;;9.13;3.75;;;19.90;67.20;;;;;;5131779;27;20479;-86
2021/05/31 12:15:15;;;;;;;6.65;3.80;;;19.90;66.50;;;;;;5131795;27;20023;-86
2021/05/31 12:17:40;;;;;;;5.55;3.45;;;19.90;65.80;;;;;;5133034;27;20068;-85
2021/05/31 12:20:07;;;;;;;6.68;3.17;;;19.90;63.50;;;;;;5130797;27;20028;-86
2021/05/31 12:22:36;;;;;;;5.72;3.05;;;20.00;61.90;;;;;;5132774;27;20029;-86
2021/05/31 12:25:05;;;;;;;6.65;2.95;;;20.10;61.20;;;;;;5131596;28;20015;-86
2021/05/31 12:27:33;;;;;;;4.72;2.90;;;20.20;60.00;;;;;;5132914;27;20072;-86
2021/05/31 12:29:59;;;;;;;4.87;3.17;;;20.30;60.00;;;;;;5130945;27;20525;-86
2021/05/31 12:32:28;;;;;;;5.32;3.47;;;20.50;58.60;;;;;;5132865;27;20480;-86
2021/05/31 12:34:54;;;;;;;4.45;2.90;;;20.60;58.90;;;;;;5132768;28;20024;-86
2021/05/31 12:37:26;;;;;;;5.45;3.33;;;20.60;58.80;;;;;;5132607;28;20047;-86
2021/05/31 12:39:53;;;;;;;5.18;3.17;;;20.70;58.30;;;;;;5132149;28;20495;-86
2021/05/31 12:42:27;;;;;;;5.35;3.17;;;20.80;57.80;;;;;;5131212;28;20479;-86
2021/05/31 12:45:05;;;;;;;5.28;2.95;;;20.90;57.20;;;;;;5131592;28;20072;-87
2021/05/31 12:47:36;;;;;;;8.63;2.97;;;20.90;57.10;;;;;;5132651;28;20027;-86
2021/05/31 12:50:05;;;;;;;5.22;3.05;;;20.90;54.80;;;;;;5130691;28;20105;-86
2021/05/31 12:52:33;;;;;;;6.65;3.45;;;20.90;55.00;;;;;;5135283;27;20019;-86
2021/05/31 12:55:14;;;;;;;6.60;3.30;;;20.90;54.60;;;;;;5136871;27;20125;-86
2021/05/31 12:57:46;;;;;;;11.02;3.33;;;20.80;55.70;;;;;;5135440;27;20023;-87
2021/05/31 13:00:17;;;;;;;5.65;3.15;;;20.80;57.80;;;;;;5134788;27;20057;-86
2021/05/31 13:02:48;;;;;;;7.25;3.58;;;20.70;57.50;;;;;;5136594;27;20031;-86